Observations for PALERMO POINT RAISI, Italy (LICJ)

LICJ 242120Z 02004KT CAVOK 24/20 Q1017  
LICJ 242050Z VRB02KT CAVOK 23/20 Q1017  
LICJ 242020Z 06003KT CAVOK 24/20 Q1016  
LICJ 241950Z 05003KT CAVOK 24/21 Q1017  
LICJ 241920Z VRB02KT CAVOK 24/21 Q1016  
LICJ 241850Z 33003KT 9999 FEW020 25/22 Q1016
LICJ 241820Z 32004KT 9999 FEW020 25/22 Q1016
LICJ 241750Z 31003KT 270V330 9999 FEW020 25/21 Q1015
LICJ 241720Z 31005KT 9999 FEW020 25/21 Q1015
LICJ 241650Z 30005KT 9999 SCT019 26/21 Q1015
LICJ 241620Z 30006KT 9999 SCT019 25/21 Q1015
LICJ 241550Z 29006KT 9999 SCT019 26/22 Q1015
LICJ 241520Z 29010KT 9999 SCT019 26/22 Q1015
LICJ 241450Z 29012KT 9999 FEW020 26/22 Q1015
LICJ 241420Z 28017KT 9999 FEW020 26/22 Q1015
LICJ 241350Z 29020KT 9999 FEW020 26/22 Q1015
LICJ 241320Z 28015KT 9999 FEW020 26/21 Q1015
LICJ 241250Z 27011KT 9999 FEW020 26/21 Q1015
LICJ 241220Z 28013KT 9999 FEW020 26/21 Q1015
LICJ 241150Z 28013KT 9999 FEW020 26/21 Q1015
LICJ 241120Z 24012KT 9999 FEW020 27/20 Q1016
LICJ 241050Z 24014KT 9999 FEW020 27/21 Q1016
LICJ 241020Z 24015KT 9999 FEW020 27/21 Q1016
LICJ 240950Z 22013KT 9999 FEW020 28/20 Q1016
LICJ 240920Z 22014KT 9999 FEW020 27/20 Q1016
LICJ 240850Z 22014KT 9999 FEW020 27/20 Q1016
LICJ 240820Z 19013KT 9999 FEW020 26/19 Q1016
LICJ 240750Z 20014KT 9999 FEW020 26/19 Q1016
LICJ 240720Z 19010KT 9999 FEW020 25/19 Q1016
LICJ 240650Z 19014KT CAVOK 25/19 Q1016 WS RWY25 
LICJ 240650Z 19014KT CAVOK 25/19 Q1016 RMK WS RWY25
LICJ 240620Z 19013KT 9999 FEW020 24/19 Q1016 WS RWY25   
LICJ 240620Z 19013KT 9999 FEW020 24/19 Q1016 RMK WS RWY25
LICJ 240550Z 19013KT 9999 FEW020 24/19 Q1016 WS RWY25   
LICJ 240550Z 19013KT 9999 FEW020 24/19 Q1016 RMK WS RWY25
LICJ 240520Z 20010KT 9999 FEW020 23/19 Q1016
LICJ 240450Z 18009KT 9999 FEW025 23/18 Q1016
LICJ 240420Z 18008KT CAVOK 23/18 Q1016  
LICJ 240350Z 18007KT CAVOK 23/18 Q1016  
LICJ 240320Z 19010KT CAVOK 23/19 Q1017  
LICJ 240250Z 20011KT CAVOK 23/19 Q1017  
LICJ 240220Z 20012KT CAVOK 23/19 Q1017  
LICJ 240150Z 20012KT CAVOK 23/20 Q1017  
LICJ 240120Z 21011KT CAVOK 24/20 Q1017  
LICJ 240050Z 18006KT CAVOK 23/20 Q1017  
LICJ 240020Z 19006KT CAVOK 23/21 Q1018  
LICJ 232350Z 22008KT CAVOK 24/21 Q1018  
LICJ 232320Z 20005KT 9999 FEW030 24/21 Q1018
LICJ 232250Z 15003KT 9999 BKN035 24/21 Q1018
LICJ 232220Z 16003KT 9999 BKN035 24/21 Q1019
LICJ 232150Z 31003KT 280V350 9999 SCT018 25/21 Q1019
LICJ 232120Z 31004KT 9999 SCT018 25/21 Q1019
LICJ 232050Z 31004KT 9999 SCT045 25/21 Q1019